Aérodrome :
LOGIN :

S'inscrire | Disclaimer

   EN    FR    IT 

 










Légende :    VFR   VFR Marginal   IFR   IFR Intensif   IFR Très Intensif
Visi : 
Plafond : 
>= 8 km
>= 3000ft
5 à 8 km
1000 à 3000 ft
1500m à 5 km
500 à 1000 ft
800 à 1500m
200 à 500 ft
< 800m
< 200 ft
Symboles :   Orages  Brouillard  Fortes neiges  Fortes précipitations  Vent > 20 kt
SIGMETs :   Divers  Orages  Givrage  Turbulence  Onde Orograph.  Cendres Volcan.







- Altitude de l'aérodrome : 1649 ft
- Code IATA : HHN


EDFH - Frankfurt-Hahn Rhineland-Palatinate

DERNIER METAR :
  • 230250Z 15007KT CAVOK 13/08 Q1017

METARs EXPIRÉS :
  • 230220Z 15008KT CAVOK 13/08 Q1017
  • 230150Z 15008KT CAVOK 13/08 Q1017
  • 230120Z 15008KT CAVOK 14/08 Q1017
  • 230050Z 14008KT CAVOK 14/09 Q1017
  • 230020Z 14008KT CAVOK 14/09 Q1017

TAF TAF EDFH
Valide du 23 à 00h jusqu'au 24 à 00h UTC


222300Z 2300/2324 15007KT CAVOK
BECMG 2306/2309 25006KT
BECMG 2315/2318 31009KT
Pas de NOTAMs connus pour ce terrain.



MET'MAP, la Météo Aéronautique d'un coup d'oeil ! - Copyright ORBIFLY Décembre 2007 - Disclaimer

ORBIFLY MET'MAP TEAM :

Programmation & Développement : Alexandra Zaïnal
Conception & Développement : Baudouin d'Aumeries
Co-Programmation & Développement : Marc-Olivier Méhu
Soutien technique & logistique : Manuel Goepfert

Contact : metmap@orbifly.com




SOURCES & CREDITS :

   NOAA